Time;durP1;ratioP1;P1;durP2;ratioP2;P2;SDS_P1;SDS_P2;PMS_P1;PMS_P2;Temp;Humidity;BMP_temperature;BMP_pressure;BME280_temperature;BME280_humidity;BME280_pressure;Samples;Min_cycle;Max_cycle;Signal;HPM_P1;HPM_P2
2022/12/29 00:02:16;;;;;;;0.93;0.88;;;12.40;86.80;;;;;;5057469;28;20033;-59
2022/12/29 00:04:42;;;;;;;1.67;0.90;;;12.40;86.70;;;;;;5037533;28;20380;-59
2022/12/29 00:07:08;;;;;;;1.38;1.05;;;12.40;86.80;;;;;;5042538;28;20116;-58
2022/12/29 00:09:34;;;;;;;1.08;0.73;;;12.40;86.70;;;;;;5047968;28;20037;-66
2022/12/29 00:12:02;;;;;;;2.20;1.35;;;12.40;86.60;;;;;;5054479;28;20040;-58
2022/12/29 00:17:13;;;;;;;2.33;1.02;;;12.40;86.50;;;;;;5056028;28;20062;-66
2022/12/29 00:36:23;;;;;;;1.63;0.95;;;12.30;86.50;;;;;;5046127;28;20044;-66
2022/12/29 00:44:23;;;;;;;1.60;1.25;;;12.30;86.60;;;;;;5060064;28;20150;-59
2022/12/29 00:46:48;;;;;;;0.95;0.80;;;12.40;86.60;;;;;;5056287;28;20475;-59
2022/12/29 00:49:30;;;;;;;0.65;0.52;;;12.40;86.60;;;;;;5043339;28;20055;-59
2022/12/29 00:51:57;;;;;;;0.73;0.73;;;12.40;86.50;;;;;;5057068;28;20036;-58
2022/12/29 00:54:23;;;;;;;0.85;0.75;;;12.40;86.50;;;;;;5042455;28;20036;-65
2022/12/29 00:56:51;;;;;;;1.58;1.05;;;12.40;86.50;;;;;;5044643;28;20438;-66
2022/12/29 00:59:17;;;;;;;0.60;0.60;;;12.40;86.40;;;;;;5049403;28;20021;-59
2022/12/29 01:01:44;;;;;;;0.88;0.77;;;12.50;86.50;;;;;;5052181;28;20025;-59
2022/12/29 01:04:10;;;;;;;1.38;1.08;;;12.50;86.30;;;;;;5050815;28;20021;-59
2022/12/29 01:06:38;;;;;;;0.63;0.55;;;12.50;86.20;;;;;;5042235;28;20344;-59
2022/12/29 01:11:50;;;;;;;1.17;0.98;;;12.50;86.00;;;;;;5045574;28;20039;-58
2022/12/29 01:14:16;;;;;;;0.60;0.60;;;12.50;86.00;;;;;;5057207;28;20035;-58
2022/12/29 01:16:42;;;;;;;1.83;0.60;;;12.50;86.00;;;;;;5051643;28;20120;-58
2022/12/29 01:19:08;;;;;;;2.63;0.68;;;12.50;86.00;;;;;;5052561;28;20559;-59
2022/12/29 01:21:33;;;;;;;0.57;0.50;;;12.50;85.90;;;;;;5054353;28;20029;-59
2022/12/29 01:23:59;;;;;;;1.48;0.60;;;12.50;85.90;;;;;;5057191;28;20119;-59
2022/12/29 01:26:25;;;;;;;1.65;0.68;;;12.50;85.80;;;;;;5050893;28;20036;-59
2022/12/29 01:28:50;;;;;;;0.47;0.40;;;12.50;85.60;;;;;;5050595;28;20534;-59
2022/12/29 01:31:16;;;;;;;0.40;0.40;;;12.50;85.70;;;;;;5051901;28;20156;-59
2022/12/29 01:33:43;;;;;;;0.38;0.38;;;12.40;85.60;;;;;;5045175;28;20036;-59
2022/12/29 01:36:13;;;;;;;0.40;0.30;;;12.50;85.80;;;;;;5041304;28;20044;-58
2022/12/29 01:38:39;;;;;;;0.47;0.28;;;12.40;85.90;;;;;;5045100;28;20083;-59
2022/12/29 01:41:07;;;;;;;0.30;0.30;;;12.40;86.10;;;;;;5060031;28;20029;-59
2022/12/29 01:43:46;;;;;;;0.80;0.60;;;12.40;86.10;;;;;;5059343;28;20375;-59
2022/12/29 01:46:37;;;;;;;0.28;0.28;;;12.40;86.20;;;;;;5051873;28;20079;-66
2022/12/29 01:49:35;;;;;;;3.13;0.60;;;12.40;86.40;;;;;;5051023;28;20452;-66
2022/12/29 01:52:05;;;;;;;0.30;0.30;;;12.30;86.50;;;;;;5046269;28;20047;-66
2022/12/29 01:54:39;;;;;;;1.20;0.40;;;12.30;86.60;;;;;;5040088;28;20103;-66
2022/12/29 01:57:13;;;;;;;0.43;0.40;;;12.30;86.60;;;;;;5046034;28;20040;-59
2022/12/29 01:59:45;;;;;;;0.32;0.32;;;12.30;86.60;;;;;;5050893;28;20033;-66
2022/12/29 02:02:11;;;;;;;1.40;0.65;;;12.30;86.60;;;;;;5041537;28;20397;-59
2022/12/29 02:04:44;;;;;;;0.85;0.30;;;12.30;86.80;;;;;;5056732;28;20117;-59
2022/12/29 02:07:16;;;;;;;0.30;0.30;;;12.30;86.80;;;;;;5049505;28;20404;-59
2022/12/29 02:09:43;;;;;;;0.40;0.40;;;12.30;86.90;;;;;;5053041;28;20024;-66
2022/12/29 02:12:09;;;;;;;0.45;0.40;;;12.30;86.90;;;;;;5049489;28;20033;-59
2022/12/29 02:14:35;;;;;;;0.90;0.60;;;12.40;86.90;;;;;;5045606;28;20037;-59
2022/12/29 02:17:27;;;;;;;0.50;0.50;;;12.40;86.90;;;;;;5051990;28;20510;-59
2022/12/29 02:20:40;;;;;;;0.80;0.75;;;12.40;86.80;;;;;;5053643;28;20033;-58
2022/12/29 02:23:18;;;;;;;0.65;0.55;;;12.40;86.80;;;;;;5058747;28;20095;-58
2022/12/29 02:25:59;;;;;;;2.15;0.55;;;12.40;86.90;;;;;;5060850;28;20029;-64
2022/12/29 02:28:40;;;;;;;1.92;0.70;;;12.50;86.90;;;;;;5045279;28;20104;-64
2022/12/29 02:31:05;;;;;;;0.82;0.60;;;12.40;86.90;;;;;;5045283;28;20021;-57
2022/12/29 02:33:40;;;;;;;0.55;0.50;;;12.40;87.00;;;;;;5040607;28;20029;-64
2022/12/29 02:36:41;;;;;;;2.88;0.95;;;12.50;87.00;;;;;;5054639;28;20040;-59
2022/12/29 02:39:26;;;;;;;1.05;0.47;;;12.50;87.00;;;;;;5046909;28;20040;-58
2022/12/29 02:42:11;;;;;;;3.63;0.63;;;12.50;87.10;;;;;;5050140;28;20094;-59
2022/12/29 02:45:14;;;;;;;0.60;0.60;;;12.50;87.20;;;;;;5057499;28;20024;-65
2022/12/29 02:47:51;;;;;;;0.70;0.50;;;12.50;87.00;;;;;;5045346;28;20036;-65
2022/12/29 02:50:33;;;;;;;0.80;0.43;;;12.50;86.90;;;;;;5053126;28;20068;-65
2022/12/29 02:53:00;;;;;;;;;;;12.60;86.70;;;;;;5061246;28;20021;-59
2022/12/29 02:55:26;;;;;;;0.50;0.50;;;12.50;86.60;;;;;;5055481;28;19928;-58
2022/12/29 02:58:22;;;;;;;0.32;0.32;;;12.50;86.20;;;;;;5049809;28;20022;-65
2022/12/29 03:01:07;;;;;;;0.35;0.35;;;12.60;85.90;;;;;;5040069;28;20036;-58
2022/12/29 03:03:51;;;;;;;0.50;0.50;;;12.60;85.50;;;;;;5049546;28;20025;-66
2022/12/29 03:06:19;;;;;;;0.50;0.50;;;12.60;84.70;;;;;;5048957;28;20077;-58
2022/12/29 03:09:05;;;;;;;2.10;0.50;;;12.70;84.50;;;;;;5053822;28;20041;-59
2022/12/29 03:18:21;;;;;;;0.40;0.40;;;12.80;83.40;;;;;;5027072;28;20404;-58
2022/12/29 03:20:54;;;;;;;2.17;0.65;;;12.80;83.10;;;;;;5026070;28;20100;-59
2022/12/29 03:23:22;;;;;;;0.22;0.22;;;12.80;82.60;;;;;;5040004;28;20062;-58
2022/12/29 03:25:52;;;;;;;1.27;0.50;;;12.90;82.10;;;;;;5059503;28;20040;-59
2022/12/29 03:28:25;;;;;;;2.38;0.30;;;12.90;82.20;;;;;;5045571;28;20495;-58
2022/12/29 03:30:51;;;;;;;0.30;0.30;;;12.90;82.40;;;;;;5042793;28;20119;-65
2022/12/29 03:33:23;;;;;;;0.40;0.40;;;12.90;82.80;;;;;;5028734;28;20137;-65
2022/12/29 03:35:53;;;;;;;0.55;0.43;;;12.80;83.10;;;;;;5047402;28;20040;-65
2022/12/29 03:38:33;;;;;;;0.88;0.50;;;12.80;83.30;;;;;;5038707;28;20029;-65
2022/12/29 03:41:04;;;;;;;0.32;0.32;;;12.70;83.20;;;;;;5044768;28;20064;-65
2022/12/29 03:43:30;;;;;;;1.38;0.32;;;12.70;83.30;;;;;;5052515;28;20409;-65
2022/12/29 03:45:56;;;;;;;0.57;0.57;;;12.70;83.50;;;;;;5041242;28;20045;-66
2022/12/29 03:48:21;;;;;;;0.50;0.43;;;12.70;83.50;;;;;;5051417;28;20024;-65
2022/12/29 03:50:47;;;;;;;0.30;0.30;;;12.70;83.50;;;;;;5047563;28;20034;-65
2022/12/29 03:53:13;;;;;;;0.50;0.50;;;12.70;83.30;;;;;;5048855;28;20060;-58
2022/12/29 03:55:38;;;;;;;1.45;0.40;;;12.70;83.30;;;;;;5055938;28;20110;-65
2022/12/29 03:58:04;;;;;;;1.92;0.80;;;12.70;83.10;;;;;;5044177;28;20037;-58
2022/12/29 04:00:30;;;;;;;3.30;0.50;;;12.70;83.10;;;;;;5043467;28;20030;-58
2022/12/29 04:02:55;;;;;;;1.38;0.82;;;12.70;82.70;;;;;;5046305;28;20029;-58
2022/12/29 04:05:21;;;;;;;0.17;0.17;;;12.80;82.70;;;;;;5051793;28;20021;-59
2022/12/29 04:07:47;;;;;;;1.42;0.60;;;12.80;82.50;;;;;;5048767;28;20035;-59
2022/12/29 04:10:12;;;;;;;0.40;0.30;;;12.80;82.30;;;;;;5040524;28;20037;-65
2022/12/29 04:12:38;;;;;;;1.75;0.65;;;12.80;82.00;;;;;;5037906;28;20038;-66
2022/12/29 04:15:04;;;;;;;0.20;0.20;;;12.80;81.90;;;;;;5042449;28;20408;-66
2022/12/29 04:17:30;;;;;;;1.23;0.57;;;12.80;81.60;;;;;;5042729;28;20029;-66
2022/12/29 04:20:59;;;;;;;1.63;0.60;;;12.80;81.50;;;;;;5056684;28;20074;-58
2022/12/29 04:22:41;;;;;;;3.47;0.57;;;12.90;81.60;;;;;;5047331;28;20511;-58
2022/12/29 04:25:08;;;;;;;0.45;0.40;;;12.90;81.60;;;;;;5054073;28;20017;-65
2022/12/29 04:27:33;;;;;;;1.65;0.60;;;12.90;81.60;;;;;;5048628;28;20395;-65
2022/12/29 04:29:59;;;;;;;1.27;0.45;;;12.90;81.30;;;;;;5047620;28;20033;-65
2022/12/29 04:32:24;;;;;;;3.53;0.43;;;12.90;80.90;;;;;;5044522;28;20037;-58
2022/12/29 04:34:50;;;;;;;2.83;0.30;;;12.80;80.90;;;;;;5048788;28;20128;-65
2022/12/29 04:37:16;;;;;;;1.83;0.68;;;12.80;81.00;;;;;;5051455;28;20032;-66
2022/12/29 04:39:41;;;;;;;0.55;0.50;;;12.80;80.80;;;;;;5038585;28;20564;-58
2022/12/29 04:42:07;;;;;;;0.35;0.35;;;12.80;80.80;;;;;;5042439;28;20033;-65
2022/12/29 04:44:33;;;;;;;1.10;0.73;;;12.80;80.90;;;;;;5051475;28;20491;-65
2022/12/29 04:46:58;;;;;;;2.85;0.52;;;12.70;81.20;;;;;;5038151;28;21608;-58
2022/12/29 04:49:24;;;;;;;1.05;0.63;;;12.70;81.30;;;;;;5042856;28;20032;-58
2022/12/29 04:51:49;;;;;;;1.10;0.50;;;12.70;81.30;;;;;;5035328;28;20037;-65
2022/12/29 04:54:15;;;;;;;0.55;0.30;;;12.60;81.50;;;;;;5046730;28;20528;-58
2022/12/29 04:56:41;;;;;;;0.60;0.38;;;12.60;81.70;;;;;;5050717;28;20025;-58
2022/12/29 04:59:07;;;;;;;2.72;0.75;;;12.50;81.80;;;;;;5052268;28;20033;-58
2022/12/29 05:01:32;;;;;;;2.05;0.50;;;12.50;81.90;;;;;;5052657;28;20087;-60
2022/12/29 05:03:58;;;;;;;3.25;0.88;;;12.40;81.90;;;;;;5051474;28;20393;-59
2022/12/29 05:06:24;;;;;;;1.55;0.40;;;12.40;82.30;;;;;;5050640;28;20172;-59
2022/12/29 05:08:50;;;;;;;0.68;0.60;;;12.40;82.10;;;;;;5050271;28;20025;-65
2022/12/29 05:11:15;;;;;;;0.93;0.55;;;12.30;81.20;;;;;;5054880;28;20053;-65
2022/12/29 05:13:41;;;;;;;1.00;0.47;;;12.30;81.10;;;;;;5042330;28;20033;-65
2022/12/29 05:16:07;;;;;;;3.28;0.57;;;12.30;81.10;;;;;;5040051;28;20033;-65
2022/12/29 05:18:32;;;;;;;0.30;0.30;;;12.30;81.10;;;;;;5051344;28;20029;-65
2022/12/29 05:20:58;;;;;;;1.55;0.52;;;12.30;80.90;;;;;;5050291;28;20044;-65
2022/12/29 05:23:23;;;;;;;5.05;0.40;;;12.30;80.70;;;;;;5053900;28;20025;-65
2022/12/29 05:25:49;;;;;;;1.50;0.57;;;12.30;79.90;;;;;;5058245;28;20037;-65
2022/12/29 05:28:15;;;;;;;4.57;0.85;;;12.30;79.90;;;;;;5040309;28;20025;-59
2022/12/29 05:30:40;;;;;;;3.00;0.77;;;12.30;79.90;;;;;;5053730;28;20499;-65
2022/12/29 05:33:06;;;;;;;2.15;0.70;;;12.30;79.80;;;;;;5050816;28;20032;-66
2022/12/29 05:35:33;;;;;;;0.65;0.35;;;12.30;80.00;;;;;;5051233;28;20144;-59
2022/12/29 05:37:58;;;;;;;0.60;0.57;;;12.30;80.40;;;;;;5044320;28;20148;-65
2022/12/29 05:40:24;;;;;;;0.80;0.57;;;12.20;80.70;;;;;;5048239;28;20507;-59
2022/12/29 05:42:49;;;;;;;1.13;0.45;;;12.20;81.20;;;;;;5058215;28;20437;-58
2022/12/29 05:45:15;;;;;;;0.40;0.40;;;12.10;81.90;;;;;;5055077;28;20029;-59
2022/12/29 05:47:41;;;;;;;0.30;0.30;;;12.00;82.20;;;;;;5057542;28;20079;-58
2022/12/29 05:50:07;;;;;;;1.33;0.60;;;12.00;82.50;;;;;;5063598;28;20081;-58
2022/12/29 05:52:32;;;;;;;1.15;0.77;;;12.00;82.70;;;;;;5051885;28;20021;-65
2022/12/29 05:54:58;;;;;;;0.43;0.43;;;11.90;82.70;;;;;;5045599;28;20036;-58
2022/12/29 05:57:24;;;;;;;0.40;0.40;;;11.90;82.80;;;;;;5058096;28;20024;-58
2022/12/29 05:59:49;;;;;;;1.13;0.52;;;11.80;82.90;;;;;;5053256;28;20038;-65
2022/12/29 06:02:15;;;;;;;0.80;0.35;;;11.80;82.80;;;;;;5055998;28;20457;-58
2022/12/29 06:04:41;;;;;;;0.63;0.60;;;11.80;82.70;;;;;;5054095;28;20032;-65
2022/12/29 06:07:06;;;;;;;3.72;0.75;;;11.80;82.60;;;;;;5037011;28;20064;-65
2022/12/29 06:09:32;;;;;;;4.85;1.15;;;11.80;82.50;;;;;;5047468;28;20134;-59
2022/12/29 06:11:58;;;;;;;0.40;0.40;;;11.80;82.40;;;;;;5043070;28;20037;-65
2022/12/29 06:14:23;;;;;;;2.08;0.82;;;11.80;82.30;;;;;;5042837;28;20101;-65
2022/12/29 06:16:49;;;;;;;1.50;0.55;;;11.80;82.10;;;;;;5046961;28;20384;-59
2022/12/29 06:19:15;;;;;;;1.00;0.63;;;11.80;82.00;;;;;;5054473;28;20395;-58
2022/12/29 06:21:40;;;;;;;2.40;1.00;;;11.80;81.70;;;;;;5051741;28;20083;-58
2022/12/29 06:24:06;;;;;;;2.70;0.77;;;11.90;81.60;;;;;;5050485;28;20657;-66
2022/12/29 06:26:32;;;;;;;5.95;1.08;;;11.80;81.30;;;;;;5063849;28;20020;-66
2022/12/29 06:28:57;;;;;;;3.70;1.05;;;11.90;81.20;;;;;;5044626;28;20395;-65
2022/12/29 06:31:23;;;;;;;2.17;0.77;;;11.90;80.70;;;;;;5055462;28;20519;-58
2022/12/29 06:33:49;;;;;;;0.80;0.68;;;11.90;80.30;;;;;;5045865;28;20040;-58
2022/12/29 06:36:15;;;;;;;0.50;0.30;;;11.90;80.00;;;;;;5056855;28;20051;-66
2022/12/29 06:38:40;;;;;;;1.05;0.63;;;11.80;79.70;;;;;;5048126;28;20036;-65
2022/12/29 06:41:06;;;;;;;1.63;0.75;;;11.80;79.60;;;;;;5049501;28;20044;-65
2022/12/29 06:43:32;;;;;;;3.35;0.70;;;11.80;79.40;;;;;;5049162;28;20033;-58
2022/12/29 06:45:58;;;;;;;2.85;0.50;;;11.80;79.20;;;;;;5034342;28;20060;-58
2022/12/29 06:48:23;;;;;;;1.90;1.02;;;11.90;79.20;;;;;;5052843;28;20029;-59
2022/12/29 06:50:49;;;;;;;1.08;0.60;;;11.90;78.60;;;;;;5045384;28;20037;-65
2022/12/29 06:53:15;;;;;;;3.42;0.88;;;11.90;78.70;;;;;;5058295;28;20059;-65
2022/12/29 06:55:42;;;;;;;4.22;0.82;;;11.90;78.50;;;;;;5047610;28;20038;-66
2022/12/29 06:58:07;;;;;;;1.08;0.55;;;11.90;78.20;;;;;;5050372;28;20033;-58
2022/12/29 07:00:33;;;;;;;1.63;0.82;;;11.90;78.40;;;;;;5049718;28;20092;-58
2022/12/29 07:02:59;;;;;;;0.95;0.73;;;11.90;78.50;;;;;;5052633;28;20466;-59
2022/12/29 07:05:27;;;;;;;0.43;0.43;;;11.90;78.10;;;;;;5048861;28;20037;-59
2022/12/29 07:07:54;;;;;;;0.32;0.32;;;11.90;77.40;;;;;;5043340;28;20488;-59
2022/12/29 07:10:20;;;;;;;0.63;0.50;;;11.90;77.40;;;;;;5045454;28;20072;-59
2022/12/29 07:12:46;;;;;;;1.13;0.40;;;12.00;77.60;;;;;;5049765;28;20033;-66
2022/12/29 07:15:12;;;;;;;1.67;0.90;;;12.00;77.00;;;;;;5048349;28;20036;-66
2022/12/29 07:17:38;;;;;;;2.67;0.57;;;12.00;76.70;;;;;;5045709;28;20077;-59
2022/12/29 07:20:04;;;;;;;4.97;0.70;;;12.00;76.90;;;;;;5053564;28;20071;-59
2022/12/29 07:22:30;;;;;;;2.08;0.40;;;12.00;76.40;;;;;;5052320;28;20025;-59
2022/12/29 07:24:55;;;;;;;2.25;1.10;;;12.00;76.50;;;;;;5049862;28;20507;-66
2022/12/29 07:27:21;;;;;;;1.83;0.80;;;12.00;76.00;;;;;;5044220;28;20033;-66
2022/12/29 07:29:47;;;;;;;4.38;0.90;;;12.00;75.90;;;;;;5049001;28;20033;-66
2022/12/29 07:32:13;;;;;;;0.47;0.40;;;12.00;76.10;;;;;;5049716;28;20032;-66
2022/12/29 07:34:39;;;;;;;7.15;0.98;;;12.00;76.00;;;;;;5049378;28;20033;-66
2022/12/29 07:37:05;;;;;;;2.40;0.65;;;12.10;76.10;;;;;;5039988;28;20498;-67
2022/12/29 07:39:31;;;;;;;0.90;0.50;;;12.10;76.10;;;;;;5049368;28;20111;-66
2022/12/29 07:41:56;;;;;;;1.25;0.40;;;12.00;76.00;;;;;;5048652;28;20112;-67
2022/12/29 07:44:22;;;;;;;0.82;0.60;;;12.00;76.00;;;;;;5056257;28;20467;-66
2022/12/29 07:46:48;;;;;;;3.22;0.90;;;12.10;76.00;;;;;;5053224;28;20036;-59
2022/12/29 07:49:14;;;;;;;0.90;0.60;;;12.10;75.90;;;;;;5049794;28;20402;-59
2022/12/29 07:51:39;;;;;;;0.50;0.50;;;12.10;75.70;;;;;;5049319;28;20483;-59
2022/12/29 07:54:05;;;;;;;3.08;0.50;;;12.10;75.60;;;;;;5044476;28;20032;-59
2022/12/29 07:56:31;;;;;;;1.48;0.98;;;12.10;75.60;;;;;;5040618;28;20494;-59
2022/12/29 07:58:56;;;;;;;1.50;0.65;;;12.10;75.50;;;;;;5039753;28;20091;-59
2022/12/29 08:01:23;;;;;;;2.38;0.65;;;12.10;75.40;;;;;;5045909;28;20028;-66
2022/12/29 08:03:49;;;;;;;2.20;0.82;;;12.10;74.90;;;;;;5047936;28;20033;-66
2022/12/29 08:06:15;;;;;;;1.40;0.80;;;12.10;74.60;;;;;;5043647;28;20039;-66
2022/12/29 08:08:41;;;;;;;1.90;0.73;;;12.20;74.30;;;;;;5054629;28;20058;-66
2022/12/29 08:11:06;;;;;;;1.50;1.08;;;12.20;74.00;;;;;;5046987;28;20086;-66
2022/12/29 08:13:32;;;;;;;1.52;0.60;;;12.10;74.10;;;;;;5048705;28;20117;-66
2022/12/29 08:15:58;;;;;;;3.35;0.60;;;12.10;74.10;;;;;;5042877;28;20033;-59
2022/12/29 08:18:24;;;;;;;1.17;0.70;;;12.10;74.10;;;;;;5044458;28;20090;-66
2022/12/29 08:20:50;;;;;;;0.98;0.43;;;12.10;74.10;;;;;;5048113;28;20030;-60
2022/12/29 08:23:15;;;;;;;4.20;0.93;;;12.10;73.90;;;;;;5039333;28;20041;-60
2022/12/29 08:25:41;;;;;;;2.25;1.10;;;12.10;73.50;;;;;;5039182;28;20032;-60
2022/12/29 08:28:08;;;;;;;3.00;1.05;;;12.10;73.80;;;;;;5039862;28;20037;-68
2022/12/29 08:30:36;;;;;;;2.97;0.68;;;12.20;73.40;;;;;;5050575;28;20124;-60
2022/12/29 08:33:01;;;;;;;1.85;0.70;;;12.20;73.60;;;;;;5055558;28;20507;-61
2022/12/29 08:35:27;;;;;;;2.38;1.13;;;12.20;73.10;;;;;;5049751;28;20053;-60
2022/12/29 08:37:53;;;;;;;1.27;0.73;;;12.20;72.80;;;;;;5052260;28;20067;-67
2022/12/29 08:40:18;;;;;;;3.42;0.93;;;12.20;72.80;;;;;;5036532;28;20033;-67
2022/12/29 08:42:44;;;;;;;1.27;0.60;;;12.20;72.60;;;;;;5052949;28;20064;-60
2022/12/29 08:45:10;;;;;;;0.95;0.63;;;12.20;72.90;;;;;;5045447;28;20029;-66
2022/12/29 08:47:36;;;;;;;1.80;0.93;;;12.20;72.40;;;;;;5044163;28;20530;-66
2022/12/29 08:50:02;;;;;;;1.33;0.52;;;12.30;72.30;;;;;;5056898;28;20041;-66
2022/12/29 08:52:28;;;;;;;3.47;0.80;;;12.20;72.20;;;;;;5044377;28;20029;-60
2022/12/29 08:54:53;;;;;;;0.93;0.60;;;12.20;72.10;;;;;;5050284;28;20456;-59
2022/12/29 08:57:19;;;;;;;8.40;1.42;;;12.20;72.30;;;;;;5049922;28;20147;-59
2022/12/29 08:59:44;;;;;;;3.22;0.85;;;12.30;72.30;;;;;;5042656;28;20028;-59
2022/12/29 09:02:11;;;;;;;6.18;1.45;;;12.30;72.40;;;;;;5049066;28;20025;-60
2022/12/29 09:04:37;;;;;;;2.05;1.23;;;12.30;72.20;;;;;;5055619;28;20032;-65
2022/12/29 09:07:03;;;;;;;1.67;1.00;;;12.30;73.00;;;;;;5052644;28;20040;-65
2022/12/29 09:09:29;;;;;;;1.38;0.70;;;12.30;72.40;;;;;;5043668;28;20040;-58
2022/12/29 09:11:54;;;;;;;3.35;1.25;;;12.30;72.70;;;;;;5058927;28;20028;-58
2022/12/29 09:14:21;;;;;;;3.15;0.80;;;12.20;72.90;;;;;;5056637;28;20052;-59
2022/12/29 09:19:31;;;;;;;1.85;0.73;;;12.20;72.70;;;;;;5047729;28;20052;-65
2022/12/29 09:21:57;;;;;;;3.75;1.15;;;12.20;73.20;;;;;;5049785;28;20020;-65
2022/12/29 09:24:22;;;;;;;1.58;0.85;;;12.20;73.70;;;;;;5048044;28;20025;-58
2022/12/29 09:26:48;;;;;;;5.45;1.40;;;12.20;74.00;;;;;;5046090;28;20029;-64
2022/12/29 09:29:14;;;;;;;4.70;1.27;;;12.10;74.10;;;;;;5047778;28;20029;-58
2022/12/29 09:31:39;;;;;;;2.15;0.68;;;12.00;74.30;;;;;;5053245;28;20063;-58
2022/12/29 09:34:05;;;;;;;3.20;1.10;;;12.00;74.30;;;;;;5050455;28;20546;-58
2022/12/29 09:36:30;;;;;;;2.63;1.20;;;12.00;74.30;;;;;;5053144;28;20488;-64
2022/12/29 09:38:56;;;;;;;3.10;1.33;;;12.00;74.30;;;;;;5049921;28;20029;-64
2022/12/29 09:41:36;;;;;;;1.52;0.93;;;12.00;74.50;;;;;;5054808;28;20108;-65
2022/12/29 09:44:17;;;;;;;2.67;0.95;;;12.00;74.40;;;;;;5044741;28;20400;-66
2022/12/29 09:46:50;;;;;;;1.45;0.90;;;12.10;75.10;;;;;;5069320;28;20061;-58
2022/12/29 09:49:27;;;;;;;;;;;12.10;74.60;;;;;;5051412;28;20067;-58
2022/12/29 09:51:57;;;;;;;2.33;1.23;;;12.00;74.60;;;;;;5045716;28;19912;-58
2022/12/29 09:54:45;;;;;;;1.30;0.80;;;12.00;74.80;;;;;;5035508;28;20795;-65
2022/12/29 09:57:21;;;;;;;2.70;1.08;;;12.00;74.90;;;;;;5048127;28;20103;-59
2022/12/29 09:59:50;;;;;;;0.85;0.50;;;12.00;75.00;;;;;;5046120;28;20029;-58
2022/12/29 10:02:38;;;;;;;4.63;1.20;;;12.00;75.20;;;;;;5047229;28;20036;-59
2022/12/29 10:05:13;;;;;;;4.60;0.85;;;12.00;75.30;;;;;;5044634;28;20025;-63
2022/12/29 10:07:51;;;;;;;2.03;0.80;;;12.00;76.30;;;;;;5047041;28;20115;-64
2022/12/29 10:10:39;;;;;;;3.25;0.98;;;12.00;75.90;;;;;;5046644;28;20045;-64
2022/12/29 10:13:40;;;;;;;3.10;1.08;;;11.90;76.50;;;;;;5049216;28;20036;-64
2022/12/29 10:16:26;;;;;;;3.80;0.63;;;11.90;77.10;;;;;;5038129;28;20399;-64
2022/12/29 10:19:04;;;;;;;2.10;0.77;;;11.70;77.80;;;;;;5039485;28;20074;-58
2022/12/29 10:22:08;;;;;;;2.63;0.93;;;11.70;78.30;;;;;;5035073;28;20041;-58
2022/12/29 10:24:37;;;;;;;2.25;0.50;;;11.70;78.80;;;;;;5042056;28;20057;-64
2022/12/29 10:27:05;;;;;;;2.55;1.10;;;11.50;79.50;;;;;;5042072;28;20017;-59
2022/12/29 10:29:41;;;;;;;2.47;1.23;;;11.50;79.90;;;;;;5041659;28;20044;-58
2022/12/29 10:32:33;;;;;;;2.15;0.88;;;11.50;80.30;;;;;;5047560;28;20044;-58
2022/12/29 10:35:08;;;;;;;5.03;1.27;;;11.40;81.10;;;;;;5038423;28;20033;-58
2022/12/29 10:37:48;;;;;;;0.90;0.40;;;11.30;81.40;;;;;;5037287;28;20029;-64
2022/12/29 10:40:36;;;;;;;1.67;0.80;;;11.30;81.60;;;;;;5049254;28;21607;-64
2022/12/29 10:43:25;;;;;;;1.20;0.60;;;11.40;81.80;;;;;;5049126;28;20030;-65
2022/12/29 10:45:54;;;;;;;5.72;0.93;;;11.30;81.80;;;;;;5061052;28;20393;-64
2022/12/29 10:48:24;;;;;;;2.25;0.90;;;11.30;81.90;;;;;;5049135;28;20032;-65
2022/12/29 10:50:53;;;;;;;0.95;0.60;;;11.30;82.00;;;;;;5047085;28;20419;-60
2022/12/29 10:53:26;;;;;;;2.97;0.77;;;11.30;82.30;;;;;;5045125;28;21489;-58
2022/12/29 10:55:53;;;;;;;2.20;0.80;;;11.30;82.40;;;;;;5049207;28;20029;-59
2022/12/29 10:58:19;;;;;;;2.72;0.85;;;11.30;82.50;;;;;;5046819;28;20391;-59
2022/12/29 11:00:52;;;;;;;1.80;1.23;;;11.30;82.60;;;;;;5036154;28;20158;-58
2022/12/29 11:03:20;;;;;;;3.13;0.70;;;11.20;83.10;;;;;;5047994;28;20044;-58
2022/12/29 11:06:15;;;;;;;1.42;0.93;;;11.20;83.50;;;;;;5044015;28;20041;-64
2022/12/29 11:08:51;;;;;;;5.38;1.02;;;11.20;83.60;;;;;;5038122;28;20033;-58
2022/12/29 11:11:32;;;;;;;0.80;0.65;;;11.20;83.70;;;;;;5042681;28;20450;-64
2022/12/29 11:14:11;;;;;;;5.32;0.98;;;11.20;83.70;;;;;;5038411;28;20488;-65
2022/12/29 11:16:37;;;;;;;3.08;0.77;;;11.20;83.70;;;;;;5031646;28;20037;-58
2022/12/29 11:19:03;;;;;;;1.33;0.95;;;11.20;83.80;;;;;;5044994;28;20597;-58
2022/12/29 11:21:41;;;;;;;2.72;1.00;;;11.20;83.70;;;;;;5034296;28;20060;-58
2022/12/29 11:24:28;;;;;;;2.05;1.10;;;11.20;83.50;;;;;;5043628;28;20026;-58
2022/12/29 11:27:24;;;;;;;1.30;1.00;;;11.30;83.20;;;;;;5040264;28;20026;-65
2022/12/29 11:29:53;;;;;;;5.47;1.50;;;11.30;83.00;;;;;;5042062;28;20056;-59
2022/12/29 11:32:19;;;;;;;3.28;1.10;;;11.40;83.20;;;;;;5034020;28;20025;-64
2022/12/29 11:34:45;;;;;;;5.03;1.63;;;11.40;82.70;;;;;;5035304;28;20037;-58
2022/12/29 11:37:12;;;;;;;3.40;1.58;;;11.50;82.30;;;;;;5036711;28;20032;-64
2022/12/29 11:39:46;;;;;;;3.70;1.70;;;11.40;82.30;;;;;;5042641;28;20025;-58
2022/12/29 11:42:22;;;;;;;3.30;1.67;;;11.40;82.40;;;;;;5046290;28;20024;-59
2022/12/29 11:44:50;;;;;;;4.22;1.52;;;11.40;82.50;;;;;;5049913;28;20095;-59
2022/12/29 11:47:32;;;;;;;5.10;1.65;;;11.40;82.70;;;;;;5045073;28;20680;-64
2022/12/29 11:50:01;;;;;;;3.53;1.77;;;11.50;82.40;;;;;;5044672;28;20489;-59
2022/12/29 11:52:33;;;;;;;9.23;2.17;;;11.50;82.20;;;;;;5048870;28;20021;-58
2022/12/29 11:55:01;;;;;;;1.43;1.03;;;11.60;82.20;;;;;;5050211;28;20021;-64
2022/12/29 11:57:27;;;;;;;5.10;1.65;;;11.60;81.80;;;;;;5050500;28;20449;-59
2022/12/29 11:59:55;;;;;;;8.90;2.10;;;11.50;81.70;;;;;;5043071;28;20117;-58
2022/12/29 12:02:44;;;;;;;6.35;1.75;;;11.60;81.70;;;;;;5034564;28;20041;-58
2022/12/29 12:05:22;;;;;;;9.27;1.95;;;11.60;81.50;;;;;;5035139;28;20089;-58
2022/12/29 12:08:03;;;;;;;3.17;1.77;;;11.60;81.30;;;;;;5039184;28;20706;-64
2022/12/29 12:10:44;;;;;;;2.28;1.40;;;11.60;81.20;;;;;;5029845;28;20388;-65
2022/12/29 12:13:38;;;;;;;4.57;1.77;;;11.60;81.20;;;;;;5040745;28;20029;-65
2022/12/29 12:16:15;;;;;;;7.80;1.55;;;11.70;80.90;;;;;;5042267;28;20087;-59
2022/12/29 12:18:51;;;;;;;5.05;1.55;;;11.70;80.90;;;;;;5033768;28;20033;-58
2022/12/29 12:21:39;;;;;;;3.08;1.52;;;11.70;80.40;;;;;;5036203;28;20766;-59
2022/12/29 12:24:39;;;;;;;3.20;0.82;;;11.80;80.00;;;;;;5038975;28;20056;-59
2022/12/29 12:27:14;;;;;;;5.28;1.73;;;12.00;79.30;;;;;;5048620;28;20025;-59
2022/12/29 12:30:03;;;;;;;2.58;1.80;;;12.00;78.80;;;;;;5040107;28;20028;-59
2022/12/29 12:32:59;;;;;;;2.00;1.08;;;12.30;77.40;;;;;;5046735;28;20108;-59
2022/12/29 12:35:40;;;;;;;1.20;0.88;;;12.40;76.30;;;;;;5040454;28;20033;-58
2022/12/29 12:38:11;;;;;;;8.90;1.60;;;12.40;76.80;;;;;;5040743;28;20064;-59
2022/12/29 12:40:55;;;;;;;4.35;1.35;;;12.40;76.60;;;;;;5029938;28;20203;-59
2022/12/29 12:43:46;;;;;;;2.78;1.63;;;12.30;76.40;;;;;;5052246;28;20103;-59
2022/12/29 12:46:30;;;;;;;5.40;1.63;;;12.20;76.60;;;;;;5030179;28;20048;-59
2022/12/29 12:49:04;;;;;;;2.45;1.60;;;12.20;76.80;;;;;;5050477;28;20036;-65
2022/12/29 12:51:49;;;;;;;2.55;0.93;;;12.80;75.80;;;;;;5043994;28;20238;-65
2022/12/29 12:54:24;;;;;;;5.00;2.10;;;13.20;73.70;;;;;;5041775;28;20033;-65
2022/12/29 12:56:57;;;;;;;7.55;1.65;;;13.60;72.80;;;;;;5040139;28;20056;-59
2022/12/29 12:59:38;;;;;;;5.55;1.10;;;13.60;72.00;;;;;;5036951;28;20053;-59
2022/12/29 13:02:54;;;;;;;2.95;1.40;;;13.30;72.60;;;;;;5028839;28;20837;-59
2022/12/29 13:05:25;;;;;;;4.97;1.15;;;13.10;73.20;;;;;;5023683;28;20124;-64
2022/12/29 13:08:11;;;;;;;8.93;1.53;;;12.70;73.80;;;;;;5023123;28;20060;-65
2022/12/29 13:10:42;;;;;;;4.03;1.73;;;12.60;74.60;;;;;;5054915;28;20052;-59
2022/12/29 13:13:23;;;;;;;7.65;1.00;;;12.50;75.20;;;;;;5046722;28;20045;-64
2022/12/29 13:16:13;;;;;;;3.38;1.10;;;12.40;75.40;;;;;;5037255;28;20033;-59
2022/12/29 13:18:41;;;;;;;1.40;1.27;;;12.40;75.80;;;;;;5044231;28;20025;-65
2022/12/29 13:21:20;;;;;;;9.35;2.03;;;12.30;76.20;;;;;;5046187;28;20471;-65
2022/12/29 13:23:59;;;;;;;5.05;1.55;;;12.30;76.30;;;;;;5051204;28;20028;-59
2022/12/29 13:26:35;;;;;;;6.88;1.40;;;12.20;76.30;;;;;;5045046;28;20107;-59
2022/12/29 13:29:12;;;;;;;3.63;1.63;;;12.20;76.60;;;;;;5059860;28;20112;-65
2022/12/29 13:31:52;;;;;;;4.25;1.20;;;12.20;76.70;;;;;;5036264;28;20116;-65
2022/12/29 13:34:27;;;;;;;5.55;1.75;;;12.20;76.80;;;;;;5044985;28;20029;-59
2022/12/29 13:36:56;;;;;;;3.28;1.10;;;12.10;76.80;;;;;;5048325;28;20034;-58
2022/12/29 13:39:25;;;;;;;2.38;1.65;;;12.10;77.00;;;;;;5042556;28;20131;-58
2022/12/29 13:41:56;;;;;;;2.03;1.00;;;12.00;77.20;;;;;;5043597;28;20040;-64
2022/12/29 13:44:30;;;;;;;2.20;1.33;;;12.00;77.60;;;;;;5045640;28;20103;-65
2022/12/29 13:46:58;;;;;;;6.53;1.48;;;11.90;77.80;;;;;;5044965;28;20057;-65